Aviation Digital Data Service (ADDS)

Output produced by METARs form (1952 UTC 27 May 2015)
found at http://aviationweather.gov/adds/metars/
 
KISP 271922Z 2719/2818 20014G22KT P6SM SCT015 BKN040 
     TEMPO 2720/2722 BKN015 
     FM280100 20011KT 6SM BR SCT010 BKN040 
     FM280600 19007KT 3SM BR SCT004 BKN008 
     TEMPO 2809/2812 1SM BR BKN004 OVC008 
     FM281400 20011KT 5SM BR SCT008 BKN200 
     TEMPO 2814/2816 BKN008 
     FM281600 20013KT P6SM SCT015 BKN040